Flight Information

DEPARTURE
COLORADO SPRINGS, CO
Elevation:
6187
Runways:
17R/35L - 11022x150 - ASPH-G
17L/35R - 13501x150 - CONC-G
13/31 - 8269x150 - ASPH-G
Active PE Departure:
31 - 35L - 35R
Current PE ATIS:
R
Altimeter:
30.01
Remarks:
SIMULTANEOUS APPROACHES TO PARALLEL RUNWAYS IN USE. V F R DEPARTURES CONTACT CLEARANCE DELIVERY, ADVISE ON COURSE HEADING, ALTITUDE, AND IF FLIGHT FOLLOWING IS REQUESTED.
ATIS:
125 719-596-7040
Clearance Delivery:
134.45
Ground:
121.7
Tower:
SPRINGS TOWER 119.9
DESTINATION
,
Elevation:
TPA:
1000 (est.)


6084.1 NM81° True-11° Var69° HDG

Flight Plan:
(click to file on line)

1. Type
2. Aircraft Identification
3. Aircraft Type / Special Equipment
4. True Airspeed
kts
5. Departure Airport
(ICAO code)
6. Arriving Airport
(ICAO code)
7. Cruising Altitude
ft
8. Alternate Airport
(ICAO code)
9. Route of Flight
10. Remarks


00:00:00 Departure ATIS: Destination ATIS:

Clearance Limit:
Route:
Altitude: Expect in minutes
Frequency:
Transponder: (7500 Hijack / 7600 Lost Comms / 7700 Emergency)


KCOS 080254Z 33007KT 10SM FEW140 15/M14 A3001 RMK AO2 SLP098 T01501144 53017
Time: 2020-04-08T02:54:00Z
1586315615
Winds: 330 @ 7 kts
Visibility: 10.0 sm
Clouds (AGL): FEW 14000
Temperature: 15.0 C
Dew Point: -14.4 C
Pressure: 30.008858 in Hgbr


Notes:

Data extracted from FAA Digital Chart Supplement. Effective: 0901Z Thursday, Mar 26, 2020 to 0901Z Thursday, May 21, 2020
Current ATIS data is provided courtisy of PilotEdge.